createdAt,value
2023-01-07T00:00:25.332Z,83.60
2023-01-07T00:01:38.399Z,83.61
2023-01-07T00:02:53.130Z,83.52
2023-01-07T00:04:07.003Z,83.45
2023-01-07T00:05:19.545Z,83.63
2023-01-07T00:06:28.363Z,83.40
2023-01-07T00:07:40.860Z,83.32
2023-01-07T00:08:54.363Z,83.49
2023-01-07T00:10:07.432Z,83.43
2023-01-07T00:11:21.494Z,83.42
2023-01-07T00:12:33.107Z,83.35
2023-01-07T00:13:46.251Z,83.40
2023-01-07T00:15:00.111Z,83.37
2023-01-07T00:16:24.183Z,83.24
2023-01-07T00:17:36.919Z,83.41
2023-01-07T00:18:50.194Z,83.28
2023-01-07T00:19:56.539Z,83.34
2023-01-07T00:21:10.515Z,83.32
2023-01-07T00:22:22.981Z,83.12
2023-01-07T00:23:36.324Z,83.23
2023-01-07T00:24:48.859Z,83.16
2023-01-07T00:26:02.176Z,83.17
2023-01-07T00:27:14.660Z,82.88
2023-01-07T00:28:26.714Z,82.95
2023-01-07T00:29:39.242Z,82.92
2023-01-07T00:30:52.161Z,82.78
2023-01-07T00:32:04.941Z,82.87
2023-01-07T00:33:17.697Z,82.61
2023-01-07T00:34:31.120Z,82.63
2023-01-07T00:35:44.997Z,82.56
2023-01-07T00:37:17.569Z,82.66
2023-01-07T00:38:25.202Z,82.43
2023-01-07T00:39:37.690Z,82.76
2023-01-07T00:40:49.221Z,82.42
2023-01-07T00:42:15.343Z,82.69
2023-01-07T00:43:28.639Z,82.72
2023-01-07T00:44:37.736Z,82.54
2023-01-07T00:46:01.744Z,82.48
2023-01-07T00:47:24.221Z,82.68
2023-01-07T00:48:46.715Z,82.55
2023-01-07T00:49:53.525Z,82.60
2023-01-07T00:51:06.277Z,82.70
2023-01-07T00:52:17.804Z,82.76
2023-01-07T00:53:30.403Z,82.58
2023-01-07T00:54:42.896Z,82.58
2023-01-07T00:55:54.454Z,82.42
2023-01-07T00:57:06.965Z,82.50
2023-01-07T00:58:22.281Z,82.49
2023-01-07T00:59:33.800Z,82.26
2023-01-07T01:00:46.375Z,82.11
2023-01-07T01:01:59.378Z,82.24
2023-01-07T01:03:12.368Z,82.53
2023-01-07T01:04:24.877Z,82.35
2023-01-07T01:05:36.397Z,82.23
2023-01-07T01:06:48.876Z,82.38
2023-01-07T01:08:00.550Z,82.44
2023-01-07T01:09:13.147Z,82.26
2023-01-07T01:10:25.636Z,82.11
2023-01-07T01:11:37.152Z,82.18
2023-01-07T01:12:50.005Z,82.28
2023-01-07T01:14:02.550Z,82.01
2023-01-07T01:15:15.420Z,82.36
2023-01-07T01:16:27.988Z,81.95
2023-01-07T01:17:41.184Z,82.04
2023-01-07T01:18:53.694Z,81.94
2023-01-07T01:20:08.162Z,82.19
2023-01-07T01:21:20.719Z,82.10
2023-01-07T01:22:33.257Z,81.95
2023-01-07T01:23:45.088Z,81.98
2023-01-07T01:24:57.610Z,82.06
2023-01-07T01:26:12.433Z,82.09
2023-01-07T01:27:19.669Z,82.27
2023-01-07T01:28:32.493Z,81.94
2023-01-07T01:29:44.070Z,82.00
2023-01-07T01:30:56.664Z,82.23
2023-01-07T01:32:09.324Z,81.76
2023-01-07T01:33:20.649Z,81.85
2023-01-07T01:34:33.120Z,81.92
2023-01-07T01:35:45.585Z,81.93
2023-01-07T01:36:57.110Z,82.02
2023-01-07T01:38:09.646Z,81.66
2023-01-07T01:39:22.033Z,81.98
2023-01-07T01:40:34.531Z,81.82
2023-01-07T01:41:47.344Z,81.97
2023-01-07T01:42:59.872Z,81.92
2023-01-07T01:44:34.503Z,81.88
2023-01-07T01:45:47.149Z,81.74
2023-01-07T01:46:59.036Z,81.96
2023-01-07T01:48:11.219Z,81.78
2023-01-07T01:49:27.821Z,81.88
2023-01-07T01:50:44.877Z,81.77
2023-01-07T01:52:00.501Z,81.96
2023-01-07T01:53:17.524Z,82.10
2023-01-07T01:54:29.379Z,81.99
2023-01-07T01:55:46.475Z,81.99
2023-01-07T01:57:01.406Z,81.82
2023-01-07T01:58:19.223Z,81.55
2023-01-07T01:59:35.221Z,82.00
2023-01-07T02:00:47.866Z,81.87
2023-01-07T02:01:59.640Z,81.88
2023-01-07T02:03:16.179Z,81.77
2023-01-07T02:04:30.609Z,81.97
2023-01-07T02:05:43.913Z,81.82
2023-01-07T02:07:01.652Z,81.89
2023-01-07T02:08:15.029Z,81.73
2023-01-07T02:09:26.689Z,81.87
2023-01-07T02:10:40.227Z,81.74
2023-01-07T02:12:01.669Z,81.53
2023-01-07T02:13:26.501Z,81.61
2023-01-07T02:14:58.061Z,81.73
2023-01-07T02:16:19.629Z,81.82
2023-01-07T02:17:43.975Z,81.87
2023-01-07T02:19:10.072Z,81.44
2023-01-07T02:20:33.879Z,81.62
2023-01-07T02:21:55.466Z,81.48
2023-01-07T02:23:48.262Z,81.60
2023-01-07T02:25:27.413Z,81.63
2023-01-07T02:27:12.577Z,81.58
2023-01-07T02:29:07.245Z,81.45
2023-01-07T02:31:05.880Z,81.51
2023-01-07T02:32:27.443Z,81.85
2023-01-07T02:33:52.123Z,81.81
2023-01-07T02:35:19.167Z,81.61
2023-01-07T02:36:42.529Z,81.56
2023-01-07T02:38:02.671Z,81.71
2023-01-07T02:39:32.412Z,81.40
2023-01-07T02:40:51.284Z,81.51
2023-01-07T02:42:14.310Z,81.69
2023-01-07T02:43:35.876Z,81.72
2023-01-07T02:44:56.809Z,81.76
2023-01-07T02:46:16.667Z,81.65
2023-01-07T02:47:35.150Z,81.54
2023-01-07T02:48:47.094Z,81.57
2023-01-07T02:50:00.839Z,81.67
2023-01-07T02:51:12.824Z,81.71
2023-01-07T02:52:26.959Z,81.78
2023-01-07T02:53:40.695Z,81.83
2023-01-07T02:54:58.693Z,81.71
2023-01-07T02:56:24.862Z,81.65
2023-01-07T02:58:28.785Z,81.46
2023-01-07T02:59:58.350Z,81.63
2023-01-07T03:01:35.717Z,81.61
2023-01-07T03:03:08.011Z,81.60
2023-01-07T03:04:34.648Z,81.57
2023-01-07T03:05:57.371Z,81.57
2023-01-07T03:07:23.597Z,81.75
2023-01-07T03:08:48.942Z,81.57
2023-01-07T03:10:06.892Z,81.52
2023-01-07T03:11:19.996Z,81.70
2023-01-07T03:12:37.680Z,81.79
2023-01-07T03:13:58.683Z,81.58
2023-01-07T03:15:18.438Z,81.52
2023-01-07T03:16:34.925Z,81.52
2023-01-07T03:17:58.070Z,81.56
2023-01-07T03:19:13.116Z,81.45
2023-01-07T03:20:26.736Z,81.80
2023-01-07T03:21:40.133Z,81.52
2023-01-07T03:22:54.497Z,81.58
2023-01-07T03:24:07.849Z,81.53
2023-01-07T03:25:24.000Z,81.42
2023-01-07T03:26:31.600Z,81.75
2023-01-07T03:27:47.520Z,81.47
2023-01-07T03:29:02.502Z,81.38
2023-01-07T03:30:17.496Z,81.41
2023-01-07T03:31:31.577Z,81.49
2023-01-07T03:32:48.842Z,81.28
2023-01-07T03:34:07.274Z,81.61
2023-01-07T03:35:20.638Z,81.49
2023-01-07T03:36:37.305Z,81.38
2023-01-07T03:37:51.541Z,81.57
2023-01-07T03:39:07.099Z,81.71
2023-01-07T03:40:21.345Z,81.46
2023-01-07T03:41:51.691Z,81.71
2023-01-07T03:43:04.193Z,81.78
2023-01-07T03:44:16.719Z,81.71
2023-01-07T03:45:29.241Z,81.52
2023-01-07T03:46:42.549Z,81.98
2023-01-07T03:47:57.679Z,81.76
2023-01-07T03:49:10.562Z,81.65
2023-01-07T03:50:23.681Z,81.68
2023-01-07T03:51:35.218Z,81.65
2023-01-07T03:52:49.489Z,81.96
2023-01-07T03:54:01.093Z,82.01
2023-01-07T03:55:13.561Z,81.91
2023-01-07T03:56:26.017Z,81.87
2023-01-07T03:57:37.611Z,81.92
2023-01-07T03:58:50.166Z,82.09
2023-01-07T04:00:02.159Z,82.12
2023-01-07T04:01:22.754Z,81.88
2023-01-07T04:02:34.394Z,82.05
2023-01-07T04:03:46.880Z,81.95
2023-01-07T04:04:59.744Z,82.21
2023-01-07T04:06:12.408Z,82.15
2023-01-07T04:07:24.883Z,82.26
2023-01-07T04:08:31.670Z,82.29
2023-01-07T04:09:44.136Z,82.21
2023-01-07T04:10:55.714Z,82.16
2023-01-07T04:12:08.588Z,82.32
2023-01-07T04:13:20.133Z,82.32
2023-01-07T04:14:32.655Z,82.33
2023-01-07T04:15:44.638Z,82.42
2023-01-07T04:16:53.324Z,82.42
2023-01-07T04:18:05.054Z,82.31
2023-01-07T04:19:19.083Z,82.50
2023-01-07T04:20:32.173Z,82.40
2023-01-07T04:21:44.844Z,82.32
2023-01-07T04:22:56.378Z,82.27
2023-01-07T04:24:09.410Z,82.37
2023-01-07T04:25:21.920Z,82.46
2023-01-07T04:26:29.121Z,82.35
2023-01-07T04:27:41.880Z,82.38
2023-01-07T04:28:53.429Z,82.40
2023-01-07T04:30:07.052Z,82.46
2023-01-07T04:31:18.675Z,82.38
2023-01-07T04:32:31.262Z,82.55
2023-01-07T04:33:43.957Z,82.40
2023-01-07T04:34:56.462Z,82.20
2023-01-07T04:36:13.083Z,82.37
2023-01-07T04:37:25.676Z,82.31
2023-01-07T04:38:37.296Z,82.19
2023-01-07T04:39:49.774Z,82.34
2023-01-07T04:41:01.318Z,82.51
2023-01-07T04:42:13.804Z,82.47
2023-01-07T04:43:25.385Z,82.23
2023-01-07T04:44:37.916Z,82.68
2023-01-07T04:45:49.462Z,82.58
2023-01-07T04:47:01.958Z,82.51
2023-01-07T04:48:13.600Z,82.47
2023-01-07T04:49:26.118Z,82.87
2023-01-07T04:50:37.687Z,82.60
2023-01-07T04:51:51.609Z,82.65
2023-01-07T04:53:03.156Z,82.59
2023-01-07T04:54:15.870Z,82.93
2023-01-07T04:55:27.421Z,82.67
2023-01-07T04:56:39.895Z,82.92
2023-01-07T04:57:51.537Z,82.78
2023-01-07T04:59:04.065Z,82.82
2023-01-07T05:00:17.000Z,82.77
2023-01-07T05:01:30.940Z,83.08
2023-01-07T05:02:43.611Z,82.87
2023-01-07T05:03:56.096Z,82.93
2023-01-07T05:05:09.852Z,82.76
2023-01-07T05:06:22.361Z,82.64
2023-01-07T05:07:35.384Z,82.80
2023-01-07T05:08:47.954Z,82.83
2023-01-07T05:09:59.484Z,82.86
2023-01-07T05:11:12.011Z,82.72
2023-01-07T05:12:23.573Z,83.00
2023-01-07T05:13:36.173Z,82.98
2023-01-07T05:14:47.728Z,83.00
2023-01-07T05:16:00.206Z,82.95
2023-01-07T05:17:11.879Z,82.87
2023-01-07T05:18:24.392Z,82.89
2023-01-07T05:19:35.969Z,83.07
2023-01-07T05:20:48.495Z,83.03
2023-01-07T05:22:01.013Z,83.07
2023-01-07T05:23:15.054Z,82.99
2023-01-07T05:24:27.573Z,83.29
2023-01-07T05:25:39.135Z,83.07
2023-01-07T05:26:51.695Z,83.02
2023-01-07T05:28:03.474Z,83.03
2023-01-07T05:29:16.061Z,82.98
2023-01-07T05:30:28.952Z,83.08
2023-01-07T05:31:41.055Z,83.21
2023-01-07T05:32:53.622Z,83.06
2023-01-07T05:34:05.165Z,83.30
2023-01-07T05:35:17.683Z,83.10
2023-01-07T05:36:30.216Z,83.28
2023-01-07T05:37:41.873Z,83.17
2023-01-07T05:38:55.844Z,83.30
2023-01-07T05:40:08.861Z,83.37
2023-01-07T05:41:21.395Z,83.23
2023-01-07T05:42:32.975Z,83.34
2023-01-07T05:43:45.517Z,83.26
2023-01-07T05:44:57.035Z,83.03
2023-01-07T05:46:08.931Z,83.29
2023-01-07T05:47:20.639Z,83.25
2023-01-07T05:48:33.207Z,83.29
2023-01-07T05:49:44.814Z,83.46
2023-01-07T05:50:57.439Z,83.15
2023-01-07T05:52:09.001Z,83.20
2023-01-07T05:53:21.588Z,83.16
2023-01-07T05:54:34.548Z,83.26
2023-01-07T05:55:47.103Z,83.02
2023-01-07T05:56:59.574Z,83.23
2023-01-07T05:58:11.418Z,83.35
2023-01-07T05:59:22.947Z,83.17
2023-01-07T06:00:36.416Z,83.39
2023-01-07T06:01:48.914Z,83.23
2023-01-07T06:03:00.544Z,83.18
2023-01-07T06:04:13.104Z,83.26
2023-01-07T06:05:24.717Z,83.42
2023-01-07T06:06:37.383Z,83.51
2023-01-07T06:07:50.865Z,83.39
2023-01-07T06:09:03.477Z,83.63
2023-01-07T06:10:16.675Z,83.61
2023-01-07T06:11:29.218Z,83.60
2023-01-07T06:12:41.898Z,83.53
2023-01-07T06:13:54.407Z,83.72
2023-01-07T06:15:08.231Z,83.52
2023-01-07T06:16:19.768Z,83.71
2023-01-07T06:17:32.244Z,83.62
2023-01-07T06:18:44.756Z,83.50
2023-01-07T06:19:56.307Z,83.30
2023-01-07T06:21:08.818Z,83.33
2023-01-07T06:22:20.369Z,83.22
2023-01-07T06:23:32.911Z,83.09
2023-01-07T06:24:45.389Z,83.04
2023-01-07T06:25:59.297Z,82.92
2023-01-07T06:27:11.906Z,82.89
2023-01-07T06:28:23.515Z,82.66
2023-01-07T06:29:36.456Z,82.56
2023-01-07T06:30:48.458Z,82.50
2023-01-07T06:32:01.002Z,82.42
2023-01-07T06:33:13.939Z,82.28
2023-01-07T06:34:26.469Z,82.17
2023-01-07T06:35:38.003Z,81.96
2023-01-07T06:36:50.567Z,81.95
2023-01-07T06:38:02.147Z,82.06
2023-01-07T06:39:14.953Z,81.80
2023-01-07T06:40:26.899Z,81.91
2023-01-07T06:41:40.711Z,81.50
2023-01-07T06:42:53.330Z,81.62
2023-01-07T06:44:06.025Z,81.57
2023-01-07T06:45:17.688Z,81.36
2023-01-07T06:46:30.351Z,81.53
2023-01-07T06:47:42.874Z,81.53
2023-01-07T06:48:56.280Z,81.43
2023-01-07T06:50:08.721Z,81.40
2023-01-07T06:51:21.252Z,81.11
2023-01-07T06:52:33.971Z,81.30
2023-01-07T06:53:46.463Z,81.21
2023-01-07T06:54:57.993Z,81.14
2023-01-07T06:56:10.561Z,81.17
2023-01-07T06:57:23.503Z,81.01
2023-01-07T06:58:36.090Z,80.81
2023-01-07T06:59:48.675Z,80.85
2023-01-07T07:01:03.932Z,80.93
2023-01-07T07:02:20.100Z,80.89
2023-01-07T07:03:31.915Z,80.83
2023-01-07T07:04:44.409Z,81.01
2023-01-07T07:05:55.927Z,80.87
2023-01-07T07:07:08.469Z,80.75
2023-01-07T07:08:20.001Z,80.67
2023-01-07T07:09:32.517Z,80.51
2023-01-07T07:10:44.986Z,80.62
2023-01-07T07:11:57.797Z,80.63
2023-01-07T07:13:11.952Z,80.55
2023-01-07T07:14:24.426Z,80.43
2023-01-07T07:15:35.945Z,80.82
2023-01-07T07:16:49.437Z,80.51
2023-01-07T07:18:01.940Z,80.56
2023-01-07T07:19:14.450Z,80.63
2023-01-07T07:20:26.023Z,80.42
2023-01-07T07:21:38.504Z,80.36
2023-01-07T07:22:50.055Z,80.41
2023-01-07T07:24:02.590Z,80.40
2023-01-07T07:25:14.335Z,80.44
2023-01-07T07:26:26.886Z,80.51
2023-01-07T07:27:38.424Z,80.39
2023-01-07T07:28:52.259Z,80.29
2023-01-07T07:30:04.942Z,80.21
2023-01-07T07:31:17.468Z,80.16
2023-01-07T07:32:29.090Z,80.00
2023-01-07T07:33:41.580Z,79.99
2023-01-07T07:34:54.062Z,80.16
2023-01-07T07:36:07.181Z,79.92
2023-01-07T07:37:19.710Z,80.14
2023-01-07T07:38:32.200Z,80.01
2023-01-07T07:39:43.720Z,79.83
2023-01-07T07:40:56.730Z,79.73
2023-01-07T07:42:08.311Z,79.72
2023-01-07T07:43:20.879Z,80.00
2023-01-07T07:44:33.795Z,79.64
2023-01-07T07:45:46.344Z,79.78
2023-01-07T07:46:57.928Z,79.66
2023-01-07T07:48:13.201Z,79.57
2023-01-07T07:49:25.719Z,79.69
2023-01-07T07:50:37.300Z,79.41
2023-01-07T07:51:49.812Z,79.38
2023-01-07T07:53:02.565Z,79.47
2023-01-07T07:54:14.069Z,79.29
2023-01-07T07:55:26.820Z,79.25
2023-01-07T07:56:38.551Z,79.23
2023-01-07T07:57:53.625Z,79.25
2023-01-07T07:59:04.587Z,79.14
2023-01-07T08:00:18.685Z,79.23
2023-01-07T08:01:31.321Z,79.06
2023-01-07T08:02:42.960Z,79.03
2023-01-07T08:03:55.497Z,78.97
2023-01-07T08:05:08.184Z,78.79
2023-01-07T08:06:20.691Z,78.54
2023-01-07T08:07:33.593Z,78.81
2023-01-07T08:08:44.677Z,79.09
2023-01-07T08:09:55.164Z,78.50
2023-01-07T08:11:07.009Z,78.40
2023-01-07T08:12:19.516Z,78.49
2023-01-07T08:13:32.363Z,78.29
2023-01-07T08:14:44.006Z,78.16
2023-01-07T08:15:58.333Z,78.21
2023-01-07T08:17:10.929Z,78.10
2023-01-07T08:18:23.602Z,78.03
2023-01-07T08:19:36.116Z,77.90
2023-01-07T08:20:48.823Z,77.59
2023-01-07T08:22:01.382Z,77.50
2023-01-07T08:23:12.916Z,77.57
2023-01-07T08:24:20.829Z,77.44
2023-01-07T08:25:34.815Z,77.18
2023-01-07T08:26:47.391Z,77.10
2023-01-07T08:28:01.142Z,76.77
2023-01-07T08:29:09.240Z,76.57
2023-01-07T08:30:21.116Z,76.59
2023-01-07T08:31:34.962Z,76.67
2023-01-07T08:32:46.516Z,76.48
2023-01-07T08:33:59.116Z,76.33
2023-01-07T08:35:11.715Z,76.26
2023-01-07T08:36:24.229Z,76.23
2023-01-07T08:37:36.723Z,75.84
2023-01-07T08:38:50.954Z,76.21
2023-01-07T08:40:05.916Z,75.94
2023-01-07T08:41:17.635Z,76.14
2023-01-07T08:42:30.813Z,76.12
2023-01-07T08:43:44.828Z,76.01
2023-01-07T08:44:57.372Z,76.11
2023-01-07T08:46:09.854Z,76.07
2023-01-07T08:47:25.913Z,75.82
2023-01-07T08:48:38.919Z,75.82
2023-01-07T08:49:51.417Z,76.05
2023-01-07T08:51:04.021Z,75.78
2023-01-07T08:52:16.520Z,76.14
2023-01-07T08:53:29.040Z,75.72
2023-01-07T08:54:40.600Z,76.09
2023-01-07T08:55:53.177Z,75.92
2023-01-07T08:57:05.701Z,76.17
2023-01-07T08:58:18.254Z,76.04
2023-01-07T08:59:30.774Z,76.40
2023-01-07T09:00:42.347Z,76.14
2023-01-07T09:01:55.023Z,76.20
2023-01-07T09:03:09.312Z,76.23
2023-01-07T09:04:21.829Z,76.33
2023-01-07T09:05:35.338Z,76.47
2023-01-07T09:06:48.243Z,76.30
2023-01-07T09:08:02.712Z,76.50
2023-01-07T09:09:16.526Z,76.74
2023-01-07T09:10:29.795Z,76.54
2023-01-07T09:11:42.381Z,76.56
2023-01-07T09:12:54.914Z,76.75
2023-01-07T09:14:07.491Z,76.74
2023-01-07T09:15:19.308Z,76.68
2023-01-07T09:16:31.894Z,76.60
2023-01-07T09:17:43.532Z,76.65
2023-01-07T09:18:57.392Z,76.66
2023-01-07T09:20:10.182Z,76.63
2023-01-07T09:21:22.763Z,76.66
2023-01-07T09:22:37.451Z,76.36
2023-01-07T09:23:50.048Z,76.60
2023-01-07T09:25:01.739Z,76.56
2023-01-07T09:26:14.249Z,76.59
2023-01-07T09:27:26.697Z,76.48
2023-01-07T09:28:39.233Z,76.27
2023-01-07T09:29:46.290Z,76.30
2023-01-07T09:30:59.933Z,76.36
2023-01-07T09:32:11.537Z,76.25
2023-01-07T09:33:24.075Z,76.05
2023-01-07T09:34:38.272Z,76.09
2023-01-07T09:35:44.506Z,75.95
2023-01-07T09:36:57.066Z,75.76
2023-01-07T09:38:09.676Z,75.99
2023-01-07T09:39:14.510Z,75.64
2023-01-07T09:40:24.183Z,75.71
2023-01-07T09:41:44.210Z,75.63
2023-01-07T09:43:04.822Z,75.47
2023-01-07T09:44:24.996Z,75.35
2023-01-07T09:45:40.578Z,75.56
2023-01-07T09:46:56.054Z,75.63
2023-01-07T09:48:18.971Z,75.55
2023-01-07T09:49:45.657Z,75.51
2023-01-07T09:51:13.376Z,75.65
2023-01-07T09:52:37.656Z,75.61
2023-01-07T09:54:02.712Z,75.71
2023-01-07T09:55:13.513Z,75.61
2023-01-07T09:56:21.642Z,75.67
2023-01-07T09:57:23.213Z,75.84
2023-01-07T09:58:25.763Z,75.58
2023-01-07T09:59:28.428Z,75.69
2023-01-07T10:00:32.550Z,75.66
2023-01-07T10:01:42.746Z,75.62
2023-01-07T10:03:00.528Z,75.50
2023-01-07T10:04:23.478Z,75.49
2023-01-07T10:06:00.520Z,75.33
2023-01-07T10:07:27.631Z,75.43
2023-01-07T10:09:04.167Z,75.57
2023-01-07T10:10:32.542Z,75.44
2023-01-07T10:12:02.934Z,75.36
2023-01-07T10:13:42.667Z,75.33
2023-01-07T10:15:20.309Z,75.42
2023-01-07T10:16:49.405Z,75.14
2023-01-07T10:18:25.027Z,75.11
2023-01-07T10:19:51.699Z,75.04
2023-01-07T10:21:18.877Z,75.20
2023-01-07T10:22:49.722Z,75.02
2023-01-07T10:24:17.144Z,75.15
2023-01-07T10:25:43.806Z,75.06
2023-01-07T10:26:49.275Z,75.08
2023-01-07T10:27:54.307Z,74.94
2023-01-07T10:29:00.849Z,75.00
2023-01-07T10:30:05.320Z,74.90
2023-01-07T10:31:16.913Z,74.70
2023-01-07T10:32:20.964Z,74.65
2023-01-07T10:33:28.365Z,74.84
2023-01-07T10:34:35.725Z,74.51
2023-01-07T10:36:04.931Z,74.67
2023-01-07T10:37:31.358Z,74.52
2023-01-07T10:38:42.865Z,74.42
2023-01-07T10:39:57.672Z,74.23
2023-01-07T10:41:07.730Z,74.45
2023-01-07T10:42:16.703Z,74.09
2023-01-07T10:43:35.476Z,73.88
2023-01-07T10:45:02.618Z,73.88
2023-01-07T10:46:25.737Z,73.90
2023-01-07T10:47:39.622Z,73.84
2023-01-07T10:49:11.621Z,73.46
2023-01-07T10:50:31.340Z,73.22
2023-01-07T10:51:56.314Z,72.90
2023-01-07T10:53:06.361Z,72.91
2023-01-07T10:54:23.189Z,72.83
2023-01-07T10:55:42.489Z,72.66
2023-01-07T10:56:47.981Z,72.67
2023-01-07T10:57:50.703Z,72.34
2023-01-07T10:58:52.485Z,71.88
2023-01-07T10:59:57.935Z,71.98
2023-01-07T11:00:59.890Z,71.89
2023-01-07T11:02:03.265Z,71.54
2023-01-07T11:03:05.503Z,71.59
2023-01-07T11:04:14.201Z,71.11
2023-01-07T11:05:18.275Z,71.03
2023-01-07T11:06:27.505Z,70.96
2023-01-07T11:07:34.913Z,70.73
2023-01-07T11:08:42.142Z,70.44
2023-01-07T11:09:46.651Z,70.43
2023-01-07T11:10:49.222Z,70.06
2023-01-07T11:11:52.700Z,70.10
2023-01-07T11:12:59.093Z,69.92
2023-01-07T11:14:04.338Z,69.77
2023-01-07T11:15:15.359Z,69.62
2023-01-07T11:16:22.256Z,69.44
2023-01-07T11:17:32.208Z,69.29
2023-01-07T11:18:39.678Z,69.54
2023-01-07T11:19:44.196Z,69.26
2023-01-07T11:20:51.050Z,69.31
2023-01-07T11:21:55.492Z,69.29
2023-01-07T11:22:59.679Z,69.12
2023-01-07T11:24:32.471Z,69.46
2023-01-07T11:25:42.241Z,69.03
2023-01-07T11:26:46.443Z,69.09
2023-01-07T11:27:49.018Z,68.93
2023-01-07T11:28:56.169Z,69.08
2023-01-07T11:30:01.821Z,68.79
2023-01-07T11:31:04.878Z,68.93
2023-01-07T11:32:19.583Z,68.92
2023-01-07T11:34:03.776Z,68.77
2023-01-07T11:34:56.179Z,68.82
2023-01-07T11:35:58.974Z,68.67
2023-01-07T11:37:01.692Z,68.43
2023-01-07T11:38:28.424Z,68.43
2023-01-07T11:39:36.831Z,68.22
2023-01-07T11:40:38.809Z,68.16
2023-01-07T11:41:53.166Z,67.96
2023-01-07T11:42:56.695Z,67.80
2023-01-07T11:44:00.690Z,67.73
2023-01-07T11:45:14.379Z,67.59
2023-01-07T11:46:22.458Z,67.42
2023-01-07T11:47:26.004Z,67.53
2023-01-07T11:48:31.810Z,67.29
2023-01-07T11:49:44.713Z,67.26
2023-01-07T11:50:57.933Z,67.46
2023-01-07T11:52:00.797Z,67.42
2023-01-07T11:53:11.193Z,66.94
2023-01-07T11:54:21.805Z,66.90
2023-01-07T11:55:25.027Z,66.99
2023-01-07T11:56:29.527Z,66.67
2023-01-07T11:57:32.725Z,66.61
2023-01-07T11:58:47.246Z,66.42
2023-01-07T12:00:12.318Z,66.76
2023-01-07T12:01:20.073Z,66.68
2023-01-07T12:02:32.623Z,66.62
2023-01-07T12:03:35.430Z,66.58
2023-01-07T12:04:41.036Z,66.54
2023-01-07T12:05:45.986Z,66.45
2023-01-07T12:06:54.911Z,66.25
2023-01-07T12:08:17.163Z,66.28
2023-01-07T12:09:36.906Z,66.12
2023-01-07T12:10:41.119Z,65.85
2023-01-07T12:11:52.825Z,65.95
2023-01-07T12:13:07.075Z,65.76
2023-01-07T12:14:24.673Z,66.03
2023-01-07T12:15:34.761Z,65.68
2023-01-07T12:19:20.579Z,65.94
2023-01-07T12:20:40.030Z,65.89
2023-01-07T12:21:52.561Z,65.92
2023-01-07T12:23:03.993Z,65.69
2023-01-07T12:24:27.124Z,65.39
2023-01-07T12:25:45.586Z,65.40
2023-01-07T12:26:55.727Z,65.35
2023-01-07T12:28:10.820Z,65.25
2023-01-07T12:29:22.196Z,65.12
2023-01-07T12:30:43.940Z,65.03
2023-01-07T12:32:05.272Z,64.62
2023-01-07T12:33:20.309Z,64.75
2023-01-07T12:34:34.871Z,64.63
2023-01-07T12:35:42.857Z,64.82
2023-01-07T12:36:55.740Z,64.71
2023-01-07T12:38:06.248Z,64.64
2023-01-07T12:39:19.610Z,64.70
2023-01-07T12:40:32.162Z,64.51
2023-01-07T12:41:40.005Z,64.23
2023-01-07T12:42:50.368Z,64.28
2023-01-07T12:44:03.453Z,64.25
2023-01-07T12:45:13.989Z,64.04
2023-01-07T12:46:24.558Z,63.93
2023-01-07T12:47:41.087Z,63.86
2023-01-07T12:49:00.466Z,63.76
2023-01-07T12:50:12.318Z,63.52
2023-01-07T12:51:20.709Z,63.54
2023-01-07T12:52:32.477Z,63.59
2023-01-07T12:53:39.647Z,63.53
2023-01-07T12:54:52.369Z,63.27
2023-01-07T12:56:02.512Z,63.42
2023-01-07T12:57:14.594Z,63.55
2023-01-07T12:58:23.741Z,63.05
2023-01-07T12:59:45.960Z,63.07
2023-01-07T13:00:56.396Z,63.01
2023-01-07T13:02:11.402Z,63.24
2023-01-07T13:03:25.701Z,63.13
2023-01-07T13:04:40.280Z,63.04
2023-01-07T13:05:49.418Z,62.73
2023-01-07T13:06:55.282Z,63.14
2023-01-07T13:08:04.588Z,63.09
2023-01-07T13:09:16.240Z,63.37
2023-01-07T13:10:25.284Z,62.92
2023-01-07T13:11:51.284Z,62.99
2023-01-07T13:12:59.544Z,62.81
2023-01-07T13:14:03.209Z,62.81
2023-01-07T13:15:13.355Z,62.70
2023-01-07T13:16:15.922Z,62.66
2023-01-07T13:17:29.486Z,62.64
2023-01-07T13:18:32.184Z,62.62
2023-01-07T13:19:33.708Z,62.56
2023-01-07T13:20:51.437Z,62.73
2023-01-07T13:22:01.182Z,62.67
2023-01-07T13:23:05.888Z,62.67
2023-01-07T13:24:54.575Z,62.63
2023-01-07T13:26:06.674Z,62.75
2023-01-07T13:27:21.753Z,62.84
2023-01-07T13:28:53.245Z,62.97
2023-01-07T13:30:13.642Z,62.90
2023-01-07T13:31:52.419Z,62.81
2023-01-07T13:33:09.231Z,62.85
2023-01-07T13:34:24.893Z,62.70
2023-01-07T13:35:49.540Z,62.85
2023-01-07T13:37:10.489Z,62.93
2023-01-07T13:38:31.955Z,62.81
2023-01-07T13:39:48.554Z,62.73
2023-01-07T13:41:01.169Z,62.70
2023-01-07T13:42:18.318Z,62.85
2023-01-07T13:43:43.145Z,62.95
2023-01-07T13:45:01.588Z,62.86
2023-01-07T13:46:09.616Z,62.78
2023-01-07T13:47:14.593Z,62.79
2023-01-07T13:48:21.843Z,62.81
2023-01-07T13:49:27.865Z,62.86
2023-01-07T13:50:36.218Z,63.12
2023-01-07T13:51:38.426Z,62.74
2023-01-07T13:52:59.014Z,63.01
2023-01-07T13:54:02.028Z,62.81
2023-01-07T13:55:42.253Z,62.82
2023-01-07T13:56:44.912Z,62.99
2023-01-07T13:57:47.130Z,63.11
2023-01-07T13:58:53.246Z,62.70
2023-01-07T13:59:57.146Z,63.13
2023-01-07T14:01:04.537Z,63.11
2023-01-07T14:02:21.076Z,63.10
2023-01-07T14:03:50.684Z,62.89
2023-01-07T14:05:05.653Z,63.47
2023-01-07T14:06:43.341Z,63.24
2023-01-07T14:07:59.700Z,63.31
2023-01-07T14:09:16.663Z,63.41
2023-01-07T14:10:30.004Z,63.62
2023-01-07T14:11:58.531Z,63.58
2023-01-07T14:13:22.830Z,63.83
2023-01-07T14:14:44.177Z,63.74
2023-01-07T14:16:02.645Z,63.84
2023-01-07T14:17:16.394Z,63.88
2023-01-07T14:18:43.815Z,63.84
2023-01-07T14:19:55.915Z,63.94
2023-01-07T14:21:08.763Z,63.90
2023-01-07T14:22:19.231Z,64.08
2023-01-07T14:23:32.565Z,64.10
2023-01-07T14:25:13.042Z,64.04
2023-01-07T14:26:22.404Z,64.16
2023-01-07T14:27:41.811Z,64.36
2023-01-07T14:29:01.234Z,64.32
2023-01-07T14:30:17.071Z,64.64
2023-01-07T14:31:23.742Z,64.30
2023-01-07T14:32:31.841Z,64.57
2023-01-07T14:33:39.342Z,64.44
2023-01-07T14:34:40.911Z,64.48
2023-01-07T14:35:44.202Z,64.66
2023-01-07T14:37:08.831Z,64.88
2023-01-07T14:38:48.809Z,64.75
2023-01-07T14:39:51.392Z,64.86
2023-01-07T14:41:07.759Z,64.81
2023-01-07T14:42:43.972Z,64.96
2023-01-07T14:44:06.001Z,64.78
2023-01-07T14:45:46.092Z,65.01
2023-01-07T14:46:52.652Z,65.18
2023-01-07T14:47:58.037Z,65.16
2023-01-07T14:49:20.676Z,65.27
2023-01-07T14:50:35.940Z,65.27
2023-01-07T14:51:54.267Z,65.27
2023-01-07T14:53:46.215Z,65.37
2023-01-07T14:55:35.246Z,65.41
2023-01-07T14:57:02.224Z,65.27
2023-01-07T14:58:22.862Z,65.55
2023-01-07T14:59:38.083Z,65.30
2023-01-07T15:01:04.686Z,65.50
2023-01-07T15:02:47.622Z,65.54
2023-01-07T15:03:58.521Z,65.56
2023-01-07T15:05:46.266Z,65.59
2023-01-07T15:06:49.913Z,65.41
2023-01-07T15:08:18.138Z,65.79
2023-01-07T15:09:43.360Z,65.76
2023-01-07T15:11:05.909Z,65.85
2023-01-07T15:12:34.155Z,65.79
2023-01-07T15:14:02.230Z,65.75
2023-01-07T15:15:28.931Z,66.02
2023-01-07T15:16:38.567Z,65.93
2023-01-07T15:17:42.162Z,65.96
2023-01-07T15:18:49.694Z,66.02
2023-01-07T15:19:54.713Z,66.14
2023-01-07T15:21:09.282Z,66.45
2023-01-07T15:22:28.371Z,66.17
2023-01-07T15:23:36.494Z,66.23
2023-01-07T15:24:50.024Z,66.40
2023-01-07T15:26:01.392Z,66.53
2023-01-07T15:27:11.911Z,66.54
2023-01-07T15:28:22.304Z,66.59
2023-01-07T15:29:35.714Z,66.74
2023-01-07T15:30:48.725Z,66.83
2023-01-07T15:32:00.355Z,66.50
2023-01-07T15:33:23.701Z,66.73
2023-01-07T15:34:34.354Z,66.69
2023-01-07T15:35:48.520Z,66.79
2023-01-07T15:36:52.942Z,66.91
2023-01-07T15:37:57.002Z,66.80
2023-01-07T15:39:01.823Z,66.61
2023-01-07T15:40:04.963Z,66.98
2023-01-07T15:41:06.875Z,67.06
2023-01-07T15:42:22.257Z,66.73
2023-01-07T15:43:26.942Z,66.78
2023-01-07T15:44:40.337Z,66.75
2023-01-07T15:45:43.429Z,66.94
2023-01-07T15:46:45.131Z,67.01
2023-01-07T15:47:48.311Z,66.67
2023-01-07T15:49:24.991Z,66.94
2023-01-07T15:50:30.950Z,66.84
2023-01-07T15:51:47.903Z,66.70
2023-01-07T15:52:53.092Z,66.64
2023-01-07T15:53:56.003Z,67.13
2023-01-07T15:55:13.701Z,67.00
2023-01-07T15:56:20.191Z,66.87
2023-01-07T15:57:28.404Z,67.02
2023-01-07T15:58:36.810Z,67.07